• Join FlightAware (Why Join?)
  • Login
  • US Flag 
02:12PM EDT


 

Airport Tracker/Info


-or-


 

Live Flight TrackerFlight Track Log ✈ SWA3937 ✈ 19-Apr-2013 ✈ KONT - KPHX

Flight Track Log - Related Links

Times and Time Zones

All times are in EDT time to prevent confusion due to time zone crossing. See the SWA3937 flight status page for this flight to view local times or setup timezone preferences in your user account.

Time Position Orientation Groundspeed Altitude Reporting Facility
EDT Latitude Longitude Course Direction KTS MPH feet Rate Location/Type
12:44PM 34.0467 -117.6297 160° South 177 204 2,100  Level Los Angeles Center
12:44PM 34.0167 -117.6167 160° South 210 242 2,800 2,280 Climbing Southern California TRACON
12:46PM 33.9372 -117.5433 143° Southeast 235 270 6,900 2,220 Climbing Los Angeles Center
12:47PM 33.8656 -117.4844 146° Southeast 296 341 9,000 2,040 Climbing Los Angeles Center
12:48PM 33.8231 -117.3769 115° Southeast 298 343 11,200 2,220 Climbing Los Angeles Center
12:49PM 33.7883 -117.2617 110° East 371 427 13,700 2,280 Climbing Los Angeles Center
12:50PM 33.7592 -117.1389 106° East 382 440 16,000 1,920 Climbing Los Angeles Center
12:51PM 33.7225 -117.0047 108° East 417 480 17,700 1,980 Climbing Los Angeles Center
12:52PM 33.6978 -116.8431 100° East 442 509 20,200 2,460 Climbing Los Angeles Center
12:53PM 33.6839 -116.6911 96° East 455 524 22,800 1,980 Climbing Los Angeles Center
12:55PM 33.6500 -116.5434 90° East  Level FlightAware Approximate
12:55PM 33.6506 -116.3756 90° East 476 548 26,500  Level Los Angeles Center
12:56PM 33.6344 -116.2142 97° East 482 555 29,100 2,160 Climbing Los Angeles Center
12:57PM 33.6256 -116.0547 94° East 475 547 31,000 900 Climbing Los Angeles Center
12:58PM 33.6211 -115.8681 92° East 466 536 31,000  Level Los Angeles Center
12:59PM 33.6189 -115.7119 91° East 468 539 31,000  Level Los Angeles Center
01:01PM 33.6147 -115.5542 92° East 472 543 31,000  Level Los Angeles Center
01:02PM 33.6103 -115.3953 92° East 475 547 31,000  Level Los Angeles Center
01:03PM 33.5947 -115.2369 97° East 479 551 31,000  Level Los Angeles Center
01:04PM 33.5761 -115.0806 98° East 475 547 31,000  Level Los Angeles Center
01:05PM 33.5558 -114.8900 97° East 481 554 31,000  Level Los Angeles Center
01:06PM 33.5372 -114.7322 98° East 479 551 31,000  Level Los Angeles Center
01:06PM 33.5283 -114.6211 95° East 478 550 31,000 -120 Level Albuquerque Center
01:08PM 33.5083 -114.4633 99° East 479 551 30,800 -1,380 Descending Albuquerque Center
01:09PM 33.4894 -114.3089 98° East 475 547 28,200 -2,640 Descending Albuquerque Center
01:10PM 33.4689 -114.1331 98° East 460 529 25,400 -1,560 Descending Albuquerque Center
01:11PM 33.4458 -113.9914 101° East 448 516 25,000 -240 Descending Albuquerque Center
01:12PM 33.4161 -113.8500 104° East 443 510 25,000 -60 Level Albuquerque Center
01:13PM 33.3881 -113.7103 103° East 438 504 24,900 -1,140 Descending Albuquerque Center
01:14PM 33.3600 -113.5714 104° East 434 499 22,700 -2,160 Descending Albuquerque Center
01:15PM 33.3333 -113.4383 103° East 422 486 20,500 -2,040 Descending Albuquerque Center
01:16PM 33.3058 -113.3092 104° East 407 468 18,500 -2,220 Descending Albuquerque Center
01:17PM 33.2764 -113.1600 103° East 389 448 16,000 -1,980 Descending Albuquerque Center
01:18PM 33.2742 -113.0369 91° East 375 432 14,500 -1,620 Descending Albuquerque Center
01:19PM 33.2781 -112.9219 88° East 354 407 12,700 -1,500 Descending Albuquerque Center
01:20PM 33.2831 -112.8122 87° East 337 388 11,500 -1,260 Descending Albuquerque Center
01:21PM 33.3172 -112.7192 66° East 311 358 10,100 -960 Descending Albuquerque Center
01:22PM 33.3492 -112.6358 65° Northeast 287 330 9,600 -720 Descending Albuquerque Center
01:23PM 33.3844 -112.5464 65° Northeast 261 300 8,700 -900 Descending Albuquerque Center
01:24PM 33.4108 -112.4756 66° East 235 270 7,800 -960 Descending Albuquerque Center
01:25PM 33.4297 -112.4033 73° East 229 264 6,800 -900 Descending Albuquerque Center
01:26PM 33.4289 -112.3283 91° East 226 260 6,000 -1,020 Descending Albuquerque Center
01:27PM 33.4289 -112.2567 90° East 217 250 4,800 -1,200 Descending Albuquerque Center
01:28PM 33.4292 -112.1769 90° East 202 232 3,600 -1,080 Descending Albuquerque Center
01:29PM 33.4289 -112.1139 90° East 192 221 2,600 -960 Descending Albuquerque Center
01:30PM 33.4292 -112.0631 90° East 159 183 1,700 -780 Descending Albuquerque Center
01:31PM 33.4289 -112.0147 90° East 136 157 1,100 -600 Descending Albuquerque Center
01:33PM 33.4333 -112.0000 301° West  Level FlightAware Approximate